sensor_id;sensor_type;location;lat;lon;timestamp;temperature;humidity
17039;DHT22;8636;55.750;13.202;2023-09-19T00:02:09;17.10;99.90
17039;DHT22;8636;55.750;13.202;2023-09-19T00:04:44;17.10;99.90
17039;DHT22;8636;55.750;13.202;2023-09-19T00:07:19;17.10;99.90
17039;DHT22;8636;55.750;13.202;2023-09-19T00:09:48;17.10;99.90
17039;DHT22;8636;55.750;13.202;2023-09-19T00:12:18;17.10;99.90
17039;DHT22;8636;55.750;13.202;2023-09-19T00:14:53;17.10;99.90
17039;DHT22;8636;55.750;13.202;2023-09-19T00:17:21;17.20;99.90
17039;DHT22;8636;55.750;13.202;2023-09-19T00:19:49;17.20;99.90
17039;DHT22;8636;55.750;13.202;2023-09-19T00:22:26;17.20;99.90
17039;DHT22;8636;55.750;13.202;2023-09-19T00:24:54;17.30;99.90
17039;DHT22;8636;55.750;13.202;2023-09-19T00:27:23;17.30;99.90
17039;DHT22;8636;55.750;13.202;2023-09-19T00:29:58;17.20;99.90
17039;DHT22;8636;55.750;13.202;2023-09-19T00:32:26;17.30;99.90
17039;DHT22;8636;55.750;13.202;2023-09-19T00:34:57;17.20;99.90
17039;DHT22;8636;55.750;13.202;2023-09-19T00:37:32;17.20;99.90
17039;DHT22;8636;55.750;13.202;2023-09-19T00:40:00;17.20;99.90
17039;DHT22;8636;55.750;13.202;2023-09-19T00:42:29;17.20;99.90
17039;DHT22;8636;55.750;13.202;2023-09-19T00:45:05;17.20;99.90
17039;DHT22;8636;55.750;13.202;2023-09-19T00:47:33;17.20;99.90
17039;DHT22;8636;55.750;13.202;2023-09-19T00:50:03;17.20;99.90
17039;DHT22;8636;55.750;13.202;2023-09-19T00:52:42;17.10;99.90
17039;DHT22;8636;55.750;13.202;2023-09-19T00:55:11;17.10;99.90
17039;DHT22;8636;55.750;13.202;2023-09-19T00:57:40;17.10;99.90
17039;DHT22;8636;55.750;13.202;2023-09-19T01:00:22;17.10;99.90
17039;DHT22;8636;55.750;13.202;2023-09-19T01:02:50;17.20;99.90
17039;DHT22;8636;55.750;13.202;2023-09-19T01:05:25;17.20;99.90
17039;DHT22;8636;55.750;13.202;2023-09-19T01:07:53;17.10;99.90
17039;DHT22;8636;55.750;13.202;2023-09-19T01:10:22;17.10;99.90
17039;DHT22;8636;55.750;13.202;2023-09-19T01:13:05;17.10;99.90
17039;DHT22;8636;55.750;13.202;2023-09-19T01:15:47;17.10;99.90
17039;DHT22;8636;55.750;13.202;2023-09-19T01:18:33;17.10;99.90
17039;DHT22;8636;55.750;13.202;2023-09-19T01:21:08;17.10;99.90
17039;DHT22;8636;55.750;13.202;2023-09-19T01:24:15;17.20;99.90
17039;DHT22;8636;55.750;13.202;2023-09-19T01:27:03;17.10;99.90
17039;DHT22;8636;55.750;13.202;2023-09-19T01:29:44;17.10;99.90
17039;DHT22;8636;55.750;13.202;2023-09-19T01:32:16;17.10;99.90
17039;DHT22;8636;55.750;13.202;2023-09-19T01:34:56;17.10;99.90
17039;DHT22;8636;55.750;13.202;2023-09-19T01:37:26;17.10;99.90
17039;DHT22;8636;55.750;13.202;2023-09-19T01:39:58;17.10;99.90
17039;DHT22;8636;55.750;13.202;2023-09-19T01:42:45;17.10;99.90
17039;DHT22;8636;55.750;13.202;2023-09-19T01:45:21;17.10;99.90
17039;DHT22;8636;55.750;13.202;2023-09-19T01:48:09;17.10;99.90
17039;DHT22;8636;55.750;13.202;2023-09-19T01:50:44;17.10;99.90
17039;DHT22;8636;55.750;13.202;2023-09-19T01:53:25;17.10;99.90
17039;DHT22;8636;55.750;13.202;2023-09-19T01:55:55;17.10;99.90
17039;DHT22;8636;55.750;13.202;2023-09-19T01:58:34;17.10;99.90
17039;DHT22;8636;55.750;13.202;2023-09-19T02:01:17;17.10;99.90
17039;DHT22;8636;55.750;13.202;2023-09-19T02:04:01;17.10;99.90
17039;DHT22;8636;55.750;13.202;2023-09-19T02:06:29;17.10;99.90
17039;DHT22;8636;55.750;13.202;2023-09-19T02:08:58;17.10;99.90
17039;DHT22;8636;55.750;13.202;2023-09-19T02:11:34;17.10;99.90
17039;DHT22;8636;55.750;13.202;2023-09-19T02:14:02;17.20;99.90
17039;DHT22;8636;55.750;13.202;2023-09-19T02:16:31;17.20;99.90
17039;DHT22;8636;55.750;13.202;2023-09-19T02:19:07;17.20;99.90
17039;DHT22;8636;55.750;13.202;2023-09-19T02:21:35;17.20;99.90
17039;DHT22;8636;55.750;13.202;2023-09-19T02:24:05;17.20;99.90
17039;DHT22;8636;55.750;13.202;2023-09-19T02:26:42;17.20;99.90
17039;DHT22;8636;55.750;13.202;2023-09-19T02:29:10;17.20;99.90
17039;DHT22;8636;55.750;13.202;2023-09-19T02:31:39;17.20;99.90
17039;DHT22;8636;55.750;13.202;2023-09-19T02:34:15;17.30;99.90
17039;DHT22;8636;55.750;13.202;2023-09-19T02:36:44;17.30;99.90
17039;DHT22;8636;55.750;13.202;2023-09-19T02:39:12;17.30;99.90
17039;DHT22;8636;55.750;13.202;2023-09-19T02:41:47;17.20;99.90
17039;DHT22;8636;55.750;13.202;2023-09-19T02:44:14;17.20;99.90
17039;DHT22;8636;55.750;13.202;2023-09-19T02:46:43;17.20;99.90
17039;DHT22;8636;55.750;13.202;2023-09-19T02:49:19;17.10;99.90
17039;DHT22;8636;55.750;13.202;2023-09-19T02:51:50;17.20;99.90
17039;DHT22;8636;55.750;13.202;2023-09-19T02:54:25;17.20;99.90
17039;DHT22;8636;55.750;13.202;2023-09-19T02:56:53;17.10;99.90
17039;DHT22;8636;55.750;13.202;2023-09-19T02:59:21;17.10;99.90
17039;DHT22;8636;55.750;13.202;2023-09-19T03:02:03;17.00;99.90
17039;DHT22;8636;55.750;13.202;2023-09-19T03:04:33;17.00;99.90
17039;DHT22;8636;55.750;13.202;2023-09-19T03:07:08;17.00;99.90
17039;DHT22;8636;55.750;13.202;2023-09-19T03:09:38;17.00;99.90
17039;DHT22;8636;55.750;13.202;2023-09-19T03:12:06;17.00;99.90
17039;DHT22;8636;55.750;13.202;2023-09-19T03:14:41;17.00;99.90
17039;DHT22;8636;55.750;13.202;2023-09-19T03:17:09;16.90;99.90
17039;DHT22;8636;55.750;13.202;2023-09-19T03:19:39;17.00;99.90
17039;DHT22;8636;55.750;13.202;2023-09-19T03:22:13;16.90;99.90
17039;DHT22;8636;55.750;13.202;2023-09-19T03:24:41;16.90;99.90
17039;DHT22;8636;55.750;13.202;2023-09-19T03:27:10;16.90;99.90
17039;DHT22;8636;55.750;13.202;2023-09-19T03:29:58;16.70;99.90
17039;DHT22;8636;55.750;13.202;2023-09-19T03:32:26;16.60;99.90
17039;DHT22;8636;55.750;13.202;2023-09-19T03:35:04;16.60;99.90
17039;DHT22;8636;55.750;13.202;2023-09-19T03:37:32;16.60;99.90
17039;DHT22;8636;55.750;13.202;2023-09-19T03:40:01;16.60;99.90
17039;DHT22;8636;55.750;13.202;2023-09-19T03:42:38;16.60;99.90
17039;DHT22;8636;55.750;13.202;2023-09-19T03:45:07;16.60;99.90
17039;DHT22;8636;55.750;13.202;2023-09-19T03:47:45;16.60;99.90
17039;DHT22;8636;55.750;13.202;2023-09-19T03:50:15;16.60;99.90
17039;DHT22;8636;55.750;13.202;2023-09-19T03:52:44;16.60;99.90
17039;DHT22;8636;55.750;13.202;2023-09-19T03:55:19;16.60;99.90
17039;DHT22;8636;55.750;13.202;2023-09-19T03:57:48;16.60;99.90
17039;DHT22;8636;55.750;13.202;2023-09-19T04:00:17;16.60;99.90
17039;DHT22;8636;55.750;13.202;2023-09-19T04:02:54;16.60;99.90
17039;DHT22;8636;55.750;13.202;2023-09-19T04:05:34;16.60;99.90
17039;DHT22;8636;55.750;13.202;2023-09-19T04:08:08;16.60;99.90
17039;DHT22;8636;55.750;13.202;2023-09-19T04:10:35;16.50;99.90
17039;DHT22;8636;55.750;13.202;2023-09-19T04:13:03;16.50;99.90
17039;DHT22;8636;55.750;13.202;2023-09-19T04:15:41;16.50;99.90
17039;DHT22;8636;55.750;13.202;2023-09-19T04:18:09;16.40;99.90
17039;DHT22;8636;55.750;13.202;2023-09-19T04:20:38;16.50;99.90
17039;DHT22;8636;55.750;13.202;2023-09-19T04:23:13;16.50;99.90
17039;DHT22;8636;55.750;13.202;2023-09-19T04:25:41;16.50;99.90
17039;DHT22;8636;55.750;13.202;2023-09-19T04:28:09;16.60;99.90
17039;DHT22;8636;55.750;13.202;2023-09-19T04:30:44;16.60;99.90
17039;DHT22;8636;55.750;13.202;2023-09-19T04:33:12;16.60;99.90
17039;DHT22;8636;55.750;13.202;2023-09-19T04:35:42;16.50;99.90
17039;DHT22;8636;55.750;13.202;2023-09-19T04:38:17;16.50;99.90
17039;DHT22;8636;55.750;13.202;2023-09-19T04:40:45;16.40;99.90
17039;DHT22;8636;55.750;13.202;2023-09-19T04:43:13;16.40;99.90
17039;DHT22;8636;55.750;13.202;2023-09-19T04:45:48;16.50;99.90
17039;DHT22;8636;55.750;13.202;2023-09-19T04:48:17;16.50;99.90
17039;DHT22;8636;55.750;13.202;2023-09-19T04:50:48;16.50;99.90
17039;DHT22;8636;55.750;13.202;2023-09-19T04:53:23;16.60;99.90
17039;DHT22;8636;55.750;13.202;2023-09-19T04:55:51;16.50;99.90
17039;DHT22;8636;55.750;13.202;2023-09-19T04:58:22;16.60;99.90
17039;DHT22;8636;55.750;13.202;2023-09-19T05:01:03;16.60;99.90
17039;DHT22;8636;55.750;13.202;2023-09-19T05:03:39;16.60;99.90
17039;DHT22;8636;55.750;13.202;2023-09-19T05:06:15;16.50;99.90
17039;DHT22;8636;55.750;13.202;2023-09-19T05:08:43;16.50;99.90
17039;DHT22;8636;55.750;13.202;2023-09-19T05:11:11;16.50;99.90
17039;DHT22;8636;55.750;13.202;2023-09-19T05:13:45;16.50;99.90
17039;DHT22;8636;55.750;13.202;2023-09-19T05:16:13;16.60;99.90
17039;DHT22;8636;55.750;13.202;2023-09-19T05:18:41;16.60;99.90
17039;DHT22;8636;55.750;13.202;2023-09-19T05:21:17;16.60;99.90
17039;DHT22;8636;55.750;13.202;2023-09-19T05:23:45;16.60;99.90
17039;DHT22;8636;55.750;13.202;2023-09-19T05:26:14;16.60;99.90
17039;DHT22;8636;55.750;13.202;2023-09-19T05:28:50;16.50;99.90
17039;DHT22;8636;55.750;13.202;2023-09-19T05:31:19;16.40;99.90
17039;DHT22;8636;55.750;13.202;2023-09-19T05:33:47;16.40;99.90
17039;DHT22;8636;55.750;13.202;2023-09-19T05:36:24;16.30;99.90
17039;DHT22;8636;55.750;13.202;2023-09-19T05:38:53;16.30;99.90
17039;DHT22;8636;55.750;13.202;2023-09-19T05:41:21;16.30;99.90
17039;DHT22;8636;55.750;13.202;2023-09-19T05:43:57;16.30;99.90
17039;DHT22;8636;55.750;13.202;2023-09-19T05:46:29;16.40;99.90
17039;DHT22;8636;55.750;13.202;2023-09-19T05:49:04;16.50;99.90
17039;DHT22;8636;55.750;13.202;2023-09-19T05:51:34;16.40;99.90
17039;DHT22;8636;55.750;13.202;2023-09-19T05:54:02;16.40;99.90
17039;DHT22;8636;55.750;13.202;2023-09-19T05:56:38;16.40;99.90
17039;DHT22;8636;55.750;13.202;2023-09-19T05:59:06;16.40;99.90
17039;DHT22;8636;55.750;13.202;2023-09-19T06:01:34;16.50;99.90
17039;DHT22;8636;55.750;13.202;2023-09-19T06:04:09;16.50;99.90
17039;DHT22;8636;55.750;13.202;2023-09-19T06:06:38;16.60;99.90
17039;DHT22;8636;55.750;13.202;2023-09-19T06:09:07;16.80;99.90
17039;DHT22;8636;55.750;13.202;2023-09-19T06:11:42;16.80;99.90
17039;DHT22;8636;55.750;13.202;2023-09-19T06:14:10;16.80;99.90
17039;DHT22;8636;55.750;13.202;2023-09-19T06:16:38;16.90;99.90
17039;DHT22;8636;55.750;13.202;2023-09-19T06:19:14;17.00;99.90
17039;DHT22;8636;55.750;13.202;2023-09-19T06:21:43;17.20;99.90
17039;DHT22;8636;55.750;13.202;2023-09-19T06:24:11;17.10;99.90
17039;DHT22;8636;55.750;13.202;2023-09-19T06:26:46;17.10;99.90
17039;DHT22;8636;55.750;13.202;2023-09-19T06:29:14;17.00;99.90
17039;DHT22;8636;55.750;13.202;2023-09-19T06:31:42;16.90;99.90
17039;DHT22;8636;55.750;13.202;2023-09-19T06:34:18;16.90;99.90
17039;DHT22;8636;55.750;13.202;2023-09-19T06:36:47;16.80;99.90
17039;DHT22;8636;55.750;13.202;2023-09-19T06:39:16;16.80;99.90
17039;DHT22;8636;55.750;13.202;2023-09-19T06:41:50;16.80;99.90
17039;DHT22;8636;55.750;13.202;2023-09-19T06:44:20;16.70;99.90
17039;DHT22;8636;55.750;13.202;2023-09-19T06:46:48;16.70;99.90
17039;DHT22;8636;55.750;13.202;2023-09-19T06:49:24;16.80;99.90
17039;DHT22;8636;55.750;13.202;2023-09-19T06:51:56;16.90;99.90
17039;DHT22;8636;55.750;13.202;2023-09-19T06:54:31;16.80;99.90
17039;DHT22;8636;55.750;13.202;2023-09-19T06:57:00;16.80;99.90
17039;DHT22;8636;55.750;13.202;2023-09-19T06:59:28;16.60;99.90
17039;DHT22;8636;55.750;13.202;2023-09-19T07:02:09;16.50;99.90
17039;DHT22;8636;55.750;13.202;2023-09-19T07:04:37;16.40;99.90
17039;DHT22;8636;55.750;13.202;2023-09-19T07:07:13;16.40;99.90
17039;DHT22;8636;55.750;13.202;2023-09-19T07:09:41;16.60;99.90
17039;DHT22;8636;55.750;13.202;2023-09-19T07:12:09;16.90;99.90
17039;DHT22;8636;55.750;13.202;2023-09-19T07:14:46;17.00;99.90
17039;DHT22;8636;55.750;13.202;2023-09-19T07:17:14;17.20;99.90
17039;DHT22;8636;55.750;13.202;2023-09-19T07:19:44;17.10;99.90
17039;DHT22;8636;55.750;13.202;2023-09-19T07:22:20;17.10;99.90
17039;DHT22;8636;55.750;13.202;2023-09-19T07:24:50;17.20;99.90
17039;DHT22;8636;55.750;13.202;2023-09-19T07:27:18;17.30;99.90
17039;DHT22;8636;55.750;13.202;2023-09-19T07:29:53;17.30;99.90
17039;DHT22;8636;55.750;13.202;2023-09-19T07:32:21;17.40;99.90
17039;DHT22;8636;55.750;13.202;2023-09-19T07:34:50;17.50;99.90
17039;DHT22;8636;55.750;13.202;2023-09-19T07:37:26;17.50;99.90
17039;DHT22;8636;55.750;13.202;2023-09-19T07:39:54;17.50;99.90
17039;DHT22;8636;55.750;13.202;2023-09-19T07:42:22;17.60;99.90
17039;DHT22;8636;55.750;13.202;2023-09-19T07:44:57;17.40;99.90
17039;DHT22;8636;55.750;13.202;2023-09-19T07:47:26;17.20;99.90
17039;DHT22;8636;55.750;13.202;2023-09-19T07:49:54;17.00;99.90
17039;DHT22;8636;55.750;13.202;2023-09-19T07:52:30;16.90;99.90
17039;DHT22;8636;55.750;13.202;2023-09-19T07:55:00;16.70;99.90
17039;DHT22;8636;55.750;13.202;2023-09-19T07:57:40;16.60;99.90
17039;DHT22;8636;55.750;13.202;2023-09-19T08:00:09;16.50;99.90
17039;DHT22;8636;55.750;13.202;2023-09-19T08:02:39;16.80;99.90
17039;DHT22;8636;55.750;13.202;2023-09-19T08:05:24;17.00;99.90
17039;DHT22;8636;55.750;13.202;2023-09-19T08:08:01;17.20;99.90
17039;DHT22;8636;55.750;13.202;2023-09-19T08:10:36;17.30;99.90
17039;DHT22;8636;55.750;13.202;2023-09-19T08:13:06;17.60;99.90
17039;DHT22;8636;55.750;13.202;2023-09-19T08:15:44;17.70;99.90
17039;DHT22;8636;55.750;13.202;2023-09-19T08:18:14;17.40;99.90
17039;DHT22;8636;55.750;13.202;2023-09-19T08:20:43;17.50;99.90
17039;DHT22;8636;55.750;13.202;2023-09-19T08:23:20;17.50;99.90
17039;DHT22;8636;55.750;13.202;2023-09-19T08:25:48;17.60;99.90
17039;DHT22;8636;55.750;13.202;2023-09-19T08:28:16;17.70;99.90
17039;DHT22;8636;55.750;13.202;2023-09-19T08:31:01;17.80;99.90
17039;DHT22;8636;55.750;13.202;2023-09-19T08:33:32;17.80;99.90
17039;DHT22;8636;55.750;13.202;2023-09-19T08:36:06;17.80;99.90
17039;DHT22;8636;55.750;13.202;2023-09-19T08:38:37;17.80;99.90
17039;DHT22;8636;55.750;13.202;2023-09-19T08:41:06;17.70;99.90
17039;DHT22;8636;55.750;13.202;2023-09-19T08:43:41;17.60;99.90
17039;DHT22;8636;55.750;13.202;2023-09-19T08:46:11;17.60;99.90
17039;DHT22;8636;55.750;13.202;2023-09-19T08:49:00;17.60;99.90
17039;DHT22;8636;55.750;13.202;2023-09-19T08:51:35;17.70;99.90
17039;DHT22;8636;55.750;13.202;2023-09-19T08:54:35;17.80;99.90
17039;DHT22;8636;55.750;13.202;2023-09-19T08:57:18;17.70;99.90
17039;DHT22;8636;55.750;13.202;2023-09-19T08:59:55;17.40;99.90
17039;DHT22;8636;55.750;13.202;2023-09-19T09:02:32;17.10;99.90
17039;DHT22;8636;55.750;13.202;2023-09-19T09:05:14;16.80;99.90
17039;DHT22;8636;55.750;13.202;2023-09-19T09:07:49;16.30;99.90
17039;DHT22;8636;55.750;13.202;2023-09-19T09:10:26;15.40;99.90
17039;DHT22;8636;55.750;13.202;2023-09-19T09:12:54;15.00;99.90
17039;DHT22;8636;55.750;13.202;2023-09-19T09:15:23;14.70;99.90
17039;DHT22;8636;55.750;13.202;2023-09-19T09:17:58;14.90;99.90
17039;DHT22;8636;55.750;13.202;2023-09-19T09:20:26;15.00;99.90
17039;DHT22;8636;55.750;13.202;2023-09-19T09:22:55;15.20;99.90
17039;DHT22;8636;55.750;13.202;2023-09-19T09:25:51;15.40;99.90
17039;DHT22;8636;55.750;13.202;2023-09-19T09:28:26;15.80;99.90
17039;DHT22;8636;55.750;13.202;2023-09-19T09:31:01;16.00;99.90
17039;DHT22;8636;55.750;13.202;2023-09-19T09:33:36;16.30;99.90
17039;DHT22;8636;55.750;13.202;2023-09-19T09:36:13;16.10;99.90
17039;DHT22;8636;55.750;13.202;2023-09-19T09:38:46;16.10;99.90
17039;DHT22;8636;55.750;13.202;2023-09-19T09:41:36;16.10;99.90
17039;DHT22;8636;55.750;13.202;2023-09-19T09:44:12;16.20;99.90
17039;DHT22;8636;55.750;13.202;2023-09-19T09:46:48;16.20;99.90
17039;DHT22;8636;55.750;13.202;2023-09-19T09:49:49;16.20;99.90
17039;DHT22;8636;55.750;13.202;2023-09-19T09:52:46;16.10;99.90
17039;DHT22;8636;55.750;13.202;2023-09-19T09:55:14;15.90;99.90
17039;DHT22;8636;55.750;13.202;2023-09-19T09:58:15;15.90;99.90
17039;DHT22;8636;55.750;13.202;2023-09-19T10:00:52;16.10;99.90
17039;DHT22;8636;55.750;13.202;2023-09-19T10:03:38;16.30;99.90
17039;DHT22;8636;55.750;13.202;2023-09-19T10:06:10;16.40;99.90
17039;DHT22;8636;55.750;13.202;2023-09-19T10:09:02;16.40;99.90
17039;DHT22;8636;55.750;13.202;2023-09-19T10:11:41;16.50;99.90
17039;DHT22;8636;55.750;13.202;2023-09-19T10:14:19;16.70;99.90
17039;DHT22;8636;55.750;13.202;2023-09-19T10:16:53;16.80;99.90
17039;DHT22;8636;55.750;13.202;2023-09-19T10:19:37;16.90;99.90
17039;DHT22;8636;55.750;13.202;2023-09-19T10:22:07;17.10;99.90
17039;DHT22;8636;55.750;13.202;2023-09-19T10:24:43;17.10;99.90
17039;DHT22;8636;55.750;13.202;2023-09-19T10:27:29;17.10;99.90
17039;DHT22;8636;55.750;13.202;2023-09-19T10:30:11;17.30;99.90
17039;DHT22;8636;55.750;13.202;2023-09-19T10:32:40;17.80;99.90
17039;DHT22;8636;55.750;13.202;2023-09-19T10:35:11;18.30;99.90
17039;DHT22;8636;55.750;13.202;2023-09-19T10:37:47;18.30;99.90
17039;DHT22;8636;55.750;13.202;2023-09-19T10:40:18;18.10;99.90
17039;DHT22;8636;55.750;13.202;2023-09-19T10:42:59;17.80;99.90
17039;DHT22;8636;55.750;13.202;2023-09-19T10:45:30;17.60;99.90
17039;DHT22;8636;55.750;13.202;2023-09-19T10:48:05;17.80;99.90
17039;DHT22;8636;55.750;13.202;2023-09-19T10:50:45;17.80;99.90
17039;DHT22;8636;55.750;13.202;2023-09-19T10:53:20;17.50;99.90
17039;DHT22;8636;55.750;13.202;2023-09-19T10:55:55;17.30;99.90
17039;DHT22;8636;55.750;13.202;2023-09-19T10:58:33;17.50;99.90
17039;DHT22;8636;55.750;13.202;2023-09-19T11:01:07;17.60;99.90
17039;DHT22;8636;55.750;13.202;2023-09-19T11:04:21;17.50;99.90
17039;DHT22;8636;55.750;13.202;2023-09-19T11:07:00;17.80;99.90
17039;DHT22;8636;55.750;13.202;2023-09-19T11:09:46;17.70;99.90
17039;DHT22;8636;55.750;13.202;2023-09-19T11:12:49;17.30;99.90
17039;DHT22;8636;55.750;13.202;2023-09-19T11:18:54;16.30;99.90
17039;DHT22;8636;55.750;13.202;2023-09-19T11:21:51;15.90;99.90
17039;DHT22;8636;55.750;13.202;2023-09-19T11:24:31;15.70;99.90
17039;DHT22;8636;55.750;13.202;2023-09-19T11:27:10;15.40;99.90
17039;DHT22;8636;55.750;13.202;2023-09-19T11:29:42;15.10;99.90
17039;DHT22;8636;55.750;13.202;2023-09-19T11:32:17;15.00;99.90
17039;DHT22;8636;55.750;13.202;2023-09-19T11:35:10;15.00;99.90
17039;DHT22;8636;55.750;13.202;2023-09-19T11:38:03;15.10;99.90
17039;DHT22;8636;55.750;13.202;2023-09-19T11:40:37;15.30;99.90
17039;DHT22;8636;55.750;13.202;2023-09-19T11:43:33;15.60;99.90
17039;DHT22;8636;55.750;13.202;2023-09-19T11:46:08;15.90;99.90
17039;DHT22;8636;55.750;13.202;2023-09-19T11:48:44;16.10;99.90
17039;DHT22;8636;55.750;13.202;2023-09-19T11:51:18;16.10;99.90
17039;DHT22;8636;55.750;13.202;2023-09-19T11:54:00;16.40;99.90
17039;DHT22;8636;55.750;13.202;2023-09-19T11:56:28;16.80;99.90
17039;DHT22;8636;55.750;13.202;2023-09-19T11:58:58;17.00;99.90
17039;DHT22;8636;55.750;13.202;2023-09-19T12:01:33;17.10;99.90
17039;DHT22;8636;55.750;13.202;2023-09-19T12:04:18;16.90;99.90
17039;DHT22;8636;55.750;13.202;2023-09-19T12:06:57;16.90;99.90
17039;DHT22;8636;55.750;13.202;2023-09-19T12:09:26;16.80;99.90
17039;DHT22;8636;55.750;13.202;2023-09-19T12:12:02;16.60;99.90
17039;DHT22;8636;55.750;13.202;2023-09-19T12:14:30;16.60;99.90
17039;DHT22;8636;55.750;13.202;2023-09-19T12:16:59;16.60;99.90
17039;DHT22;8636;55.750;13.202;2023-09-19T12:19:36;16.50;99.90
17039;DHT22;8636;55.750;13.202;2023-09-19T12:22:06;16.50;99.90
17039;DHT22;8636;55.750;13.202;2023-09-19T12:24:35;16.50;99.90
17039;DHT22;8636;55.750;13.202;2023-09-19T12:27:14;16.60;99.90
17039;DHT22;8636;55.750;13.202;2023-09-19T12:29:44;16.70;99.90
17039;DHT22;8636;55.750;13.202;2023-09-19T12:32:12;16.80;99.90
17039;DHT22;8636;55.750;13.202;2023-09-19T12:34:51;17.00;99.90
17039;DHT22;8636;55.750;13.202;2023-09-19T12:37:21;17.20;99.90
17039;DHT22;8636;55.750;13.202;2023-09-19T12:39:51;17.20;99.90
17039;DHT22;8636;55.750;13.202;2023-09-19T12:42:28;17.10;99.90
17039;DHT22;8636;55.750;13.202;2023-09-19T12:45:02;17.20;99.90
17039;DHT22;8636;55.750;13.202;2023-09-19T12:50:59;17.20;99.90
17039;DHT22;8636;55.750;13.202;2023-09-19T12:53:37;17.10;99.90
17039;DHT22;8636;55.750;13.202;2023-09-19T12:56:08;17.00;99.90
17039;DHT22;8636;55.750;13.202;2023-09-19T12:58:50;17.00;99.90
17039;DHT22;8636;55.750;13.202;2023-09-19T13:01:21;17.20;99.90
17039;DHT22;8636;55.750;13.202;2023-09-19T13:04:15;17.20;99.90
17039;DHT22;8636;55.750;13.202;2023-09-19T13:06:48;17.20;99.90
17039;DHT22;8636;55.750;13.202;2023-09-19T13:09:24;17.10;99.90
17039;DHT22;8636;55.750;13.202;2023-09-19T13:11:58;17.10;99.90
17039;DHT22;8636;55.750;13.202;2023-09-19T13:14:34;17.00;99.90
17039;DHT22;8636;55.750;13.202;2023-09-19T13:17:08;16.90;99.90
17039;DHT22;8636;55.750;13.202;2023-09-19T13:19:50;16.80;99.90
17039;DHT22;8636;55.750;13.202;2023-09-19T13:22:38;16.70;99.90
17039;DHT22;8636;55.750;13.202;2023-09-19T13:25:15;16.60;99.90
17039;DHT22;8636;55.750;13.202;2023-09-19T13:27:46;16.50;99.90
17039;DHT22;8636;55.750;13.202;2023-09-19T13:30:25;16.50;99.90
17039;DHT22;8636;55.750;13.202;2023-09-19T13:33:04;16.50;99.90
17039;DHT22;8636;55.750;13.202;2023-09-19T13:35:40;16.50;99.90
17039;DHT22;8636;55.750;13.202;2023-09-19T13:38:08;16.50;99.90
17039;DHT22;8636;55.750;13.202;2023-09-19T13:40:40;16.70;99.90
17039;DHT22;8636;55.750;13.202;2023-09-19T13:43:16;16.80;99.90
17039;DHT22;8636;55.750;13.202;2023-09-19T13:45:44;16.90;99.90
17039;DHT22;8636;55.750;13.202;2023-09-19T13:48:12;16.80;99.90
17039;DHT22;8636;55.750;13.202;2023-09-19T13:50:46;16.80;99.90
17039;DHT22;8636;55.750;13.202;2023-09-19T13:53:14;16.70;99.90
17039;DHT22;8636;55.750;13.202;2023-09-19T13:55:45;16.60;99.90
17039;DHT22;8636;55.750;13.202;2023-09-19T13:58:21;16.50;99.90
17039;DHT22;8636;55.750;13.202;2023-09-19T14:00:55;16.50;99.90
17039;DHT22;8636;55.750;13.202;2023-09-19T14:03:31;16.60;99.90
17039;DHT22;8636;55.750;13.202;2023-09-19T14:06:05;16.50;99.90
17039;DHT22;8636;55.750;13.202;2023-09-19T14:08:48;16.60;99.90
17039;DHT22;8636;55.750;13.202;2023-09-19T14:11:23;16.60;99.90
17039;DHT22;8636;55.750;13.202;2023-09-19T14:13:58;16.50;99.90
17039;DHT22;8636;55.750;13.202;2023-09-19T14:16:27;16.70;99.90
17039;DHT22;8636;55.750;13.202;2023-09-19T14:18:57;16.70;99.90
17039;DHT22;8636;55.750;13.202;2023-09-19T14:21:32;16.60;99.90
17039;DHT22;8636;55.750;13.202;2023-09-19T14:24:00;16.50;99.90
17039;DHT22;8636;55.750;13.202;2023-09-19T14:26:29;16.60;99.90
17039;DHT22;8636;55.750;13.202;2023-09-19T14:29:03;16.60;99.90
17039;DHT22;8636;55.750;13.202;2023-09-19T14:31:32;16.60;99.90
17039;DHT22;8636;55.750;13.202;2023-09-19T14:34:00;16.40;99.90
17039;DHT22;8636;55.750;13.202;2023-09-19T14:36:35;16.40;99.90
17039;DHT22;8636;55.750;13.202;2023-09-19T14:39:03;16.30;99.90
17039;DHT22;8636;55.750;13.202;2023-09-19T14:41:32;16.40;99.90
17039;DHT22;8636;55.750;13.202;2023-09-19T14:44:07;16.30;99.90
17039;DHT22;8636;55.750;13.202;2023-09-19T14:46:37;16.30;99.90
17039;DHT22;8636;55.750;13.202;2023-09-19T14:49:05;16.30;99.90
17039;DHT22;8636;55.750;13.202;2023-09-19T14:51:40;16.20;99.90
17039;DHT22;8636;55.750;13.202;2023-09-19T14:54:10;16.20;99.90
17039;DHT22;8636;55.750;13.202;2023-09-19T14:56:39;16.20;99.90
17039;DHT22;8636;55.750;13.202;2023-09-19T14:59:14;16.30;99.90
17039;DHT22;8636;55.750;13.202;2023-09-19T15:01:49;16.30;99.90
17039;DHT22;8636;55.750;13.202;2023-09-19T15:04:30;16.20;99.90
17039;DHT22;8636;55.750;13.202;2023-09-19T15:06:58;16.10;99.90
17039;DHT22;8636;55.750;13.202;2023-09-19T15:09:26;16.10;99.90
17039;DHT22;8636;55.750;13.202;2023-09-19T15:12:04;16.10;99.90
17039;DHT22;8636;55.750;13.202;2023-09-19T15:14:32;16.10;99.90
17039;DHT22;8636;55.750;13.202;2023-09-19T15:17:00;16.10;99.90
17039;DHT22;8636;55.750;13.202;2023-09-19T15:19:37;16.10;99.90
17039;DHT22;8636;55.750;13.202;2023-09-19T15:22:05;16.10;99.90
17039;DHT22;8636;55.750;13.202;2023-09-19T15:24:33;16.10;99.90
17039;DHT22;8636;55.750;13.202;2023-09-19T15:27:09;16.20;99.90
17039;DHT22;8636;55.750;13.202;2023-09-19T15:29:37;16.20;99.90
17039;DHT22;8636;55.750;13.202;2023-09-19T15:32:05;16.20;99.90
17039;DHT22;8636;55.750;13.202;2023-09-19T15:34:40;16.30;99.90
17039;DHT22;8636;55.750;13.202;2023-09-19T15:37:08;16.30;99.90
17039;DHT22;8636;55.750;13.202;2023-09-19T15:39:36;16.40;99.90
17039;DHT22;8636;55.750;13.202;2023-09-19T15:42:12;16.50;99.90
17039;DHT22;8636;55.750;13.202;2023-09-19T15:44:42;16.60;99.90
17039;DHT22;8636;55.750;13.202;2023-09-19T15:47:11;16.60;99.90
17039;DHT22;8636;55.750;13.202;2023-09-19T15:49:47;16.60;99.90
17039;DHT22;8636;55.750;13.202;2023-09-19T15:52:17;16.60;99.90
17039;DHT22;8636;55.750;13.202;2023-09-19T15:54:45;16.50;99.90
17039;DHT22;8636;55.750;13.202;2023-09-19T15:57:20;16.50;99.90
17039;DHT22;8636;55.750;13.202;2023-09-19T15:59:49;16.50;99.90
17039;DHT22;8636;55.750;13.202;2023-09-19T16:02:17;16.30;99.90
17039;DHT22;8636;55.750;13.202;2023-09-19T16:04:59;16.30;99.90
17039;DHT22;8636;55.750;13.202;2023-09-19T16:07:27;16.20;99.90
17039;DHT22;8636;55.750;13.202;2023-09-19T16:10:02;16.10;99.90
17039;DHT22;8636;55.750;13.202;2023-09-19T16:12:32;16.10;99.90
17039;DHT22;8636;55.750;13.202;2023-09-19T16:15:00;16.00;99.90
17039;DHT22;8636;55.750;13.202;2023-09-19T16:17:35;15.90;99.90
17039;DHT22;8636;55.750;13.202;2023-09-19T16:20:04;15.80;99.90